Time;durP1;ratioP1;P1;durP2;ratioP2;P2;SDS_P1;SDS_P2;PMS_P1;PMS_P2;Temp;Humidity;BMP_temperature;BMP_pressure;BME280_temperature;BME280_humidity;BME280_pressure;Samples;Min_cycle;Max_cycle;Signal;HPM_P1;HPM_P2
2022/11/26 00:00:53;;;;;;;16.33;9.50;;;7.30;85.10;;;5.40;100.00;96865.47;4950032;28;20049;-63
2022/11/26 00:03:19;;;;;;;18.85;9.98;;;7.20;85.20;;;5.41;100.00;96861.06;4943517;28;20552;-62
2022/11/26 00:05:49;;;;;;;15.35;8.90;;;7.20;85.10;;;5.42;100.00;96855.72;4947744;28;20548;-62
2022/11/26 00:08:36;;;;;;;19.80;9.07;;;7.30;84.90;;;5.44;100.00;96858.22;4963289;28;20552;-63
2022/11/26 00:11:02;;;;;;;16.52;7.47;;;7.30;84.90;;;5.43;100.00;96860.00;4962329;28;20131;-62
2022/11/26 00:13:34;;;;;;;14.20;6.53;;;7.30;84.80;;;5.46;100.00;96861.50;4964408;28;20030;-62
2022/11/26 00:16:00;;;;;;;16.65;6.88;;;7.30;84.80;;;5.47;100.00;96863.97;4964719;28;20577;-63
2022/11/26 00:18:27;;;;;;;13.13;6.82;;;7.30;84.80;;;5.45;100.00;96858.06;4967705;28;20585;-62
2022/11/26 00:21:30;;;;;;;10.18;5.85;;;7.40;84.70;;;5.46;100.00;96859.72;4931159;28;20155;-62
2022/11/26 00:23:59;;;;;;;12.57;6.75;;;7.30;84.70;;;5.49;100.00;96866.44;4925759;28;20070;-62
2022/11/26 00:26:26;;;;;;;15.82;6.43;;;7.30;84.40;;;5.48;100.00;96860.41;4943185;28;20069;-62
2022/11/26 00:29:00;;;;;;;15.48;5.75;;;7.30;84.40;;;5.49;100.00;96869.06;4926953;28;20031;-62
2022/11/26 00:31:43;;;;;;;15.02;6.25;;;7.30;84.50;;;5.49;100.00;96871.66;4942647;28;20156;-62
2022/11/26 00:34:15;;;;;;;15.45;6.00;;;7.40;84.50;;;5.49;100.00;96867.28;4932589;28;20631;-63
2022/11/26 00:36:47;;;;;;;12.90;5.57;;;7.30;84.30;;;5.50;100.00;96879.34;4932013;28;20041;-62
2022/11/26 00:39:22;;;;;;;13.63;5.55;;;7.30;84.50;;;5.51;100.00;96874.94;4929379;28;20116;-66
2022/11/26 00:41:52;;;;;;;11.60;5.28;;;7.40;84.40;;;5.50;100.00;96874.13;4930684;28;20190;-62
2022/11/26 00:44:33;;;;;;;11.27;5.63;;;7.40;84.50;;;5.51;100.00;96883.59;4933036;28;20096;-66
2022/11/26 00:47:01;;;;;;;14.05;5.13;;;7.30;84.50;;;5.50;100.00;96889.78;4932634;28;20277;-62
2022/11/26 00:49:30;;;;;;;9.18;5.03;;;7.40;84.50;;;5.49;100.00;96895.16;4915309;28;20096;-61
2022/11/26 00:51:56;;;;;;;12.13;5.63;;;7.40;84.40;;;5.51;100.00;96894.03;4929591;28;20149;-62
2022/11/26 00:54:24;;;;;;;11.02;5.13;;;7.40;84.30;;;5.52;100.00;96900.09;4928164;28;20340;-64
2022/11/26 00:56:51;;;;;;;11.88;5.00;;;7.40;84.00;;;5.53;100.00;96897.34;4928138;28;20175;-63
2022/11/26 00:59:24;;;;;;;9.60;5.18;;;7.40;84.00;;;5.54;100.00;96896.38;4963275;28;20119;-70
2022/11/26 01:01:51;;;;;;;9.85;5.18;;;7.40;84.00;;;5.55;100.00;96905.03;4925652;28;20066;-67
2022/11/26 01:04:17;;;;;;;11.70;5.50;;;7.40;84.10;;;5.56;100.00;96908.47;4930039;28;20037;-69
2022/11/26 01:06:46;;;;;;;9.98;5.28;;;7.40;84.10;;;5.56;100.00;96909.28;4944324;28;20033;-66
2022/11/26 01:09:18;;;;;;;13.02;6.03;;;7.40;84.20;;;5.55;100.00;96902.41;4938660;28;20065;-69
2022/11/26 01:11:45;;;;;;;13.82;5.75;;;7.40;84.00;;;5.54;100.00;96912.03;4948388;28;20076;-68
2022/11/26 01:14:16;;;;;;;13.70;5.85;;;7.40;84.10;;;5.52;100.00;96913.97;4961208;28;20061;-67
2022/11/26 01:16:42;;;;;;;;;;;7.30;83.90;;;5.49;100.00;96914.22;4962353;28;20116;-65
2022/11/26 01:19:11;;;;;;;11.15;5.47;;;7.30;84.10;;;5.49;100.00;96919.44;4927382;28;19947;-67
2022/11/26 01:21:53;;;;;;;12.77;5.63;;;7.30;84.20;;;5.48;100.00;96915.19;4945334;28;20034;-66
2022/11/26 01:24:23;;;;;;;14.02;5.95;;;7.30;84.10;;;5.46;100.00;96914.50;4945333;28;20068;-70
2022/11/26 01:26:48;;;;;;;13.77;5.03;;;7.30;84.20;;;5.45;100.00;96920.69;4949144;28;20030;-66
2022/11/26 01:29:16;;;;;;;11.88;5.13;;;7.30;84.10;;;5.43;100.00;96914.78;4963212;28;20046;-66
2022/11/26 01:31:43;;;;;;;11.35;5.85;;;7.30;84.10;;;5.42;100.00;96918.34;4945330;28;20592;-65
2022/11/26 01:34:12;;;;;;;11.77;5.35;;;7.20;84.20;;;5.41;100.00;96927.13;4944126;28;20038;-67
2022/11/26 01:36:39;;;;;;;14.48;5.55;;;7.10;84.10;;;5.40;100.00;96922.03;4944316;28;20030;-66
2022/11/26 01:39:19;;;;;;;12.45;5.22;;;7.20;84.20;;;5.40;100.00;96929.88;4928618;28;20033;-69
2022/11/26 01:42:15;;;;;;;7.63;4.38;;;7.10;84.10;;;5.36;100.00;96926.72;4945232;28;20060;-69
2022/11/26 01:44:42;;;;;;;13.25;4.85;;;7.10;84.60;;;5.29;100.00;96916.97;4961159;28;20038;-67
2022/11/26 01:47:26;;;;;;;10.30;4.80;;;6.90;85.00;;;5.28;100.00;96929.19;4943926;28;20042;-66
2022/11/26 01:50:30;;;;;;;13.38;5.00;;;7.00;85.00;;;5.28;100.00;96928.38;4945815;28;20078;-66
2022/11/26 01:53:54;;;;;;;13.10;4.78;;;7.00;85.00;;;5.27;100.00;96932.75;4945157;28;20575;-66
2022/11/26 01:56:32;;;;;;;11.68;4.68;;;7.00;85.00;;;5.24;100.00;96940.84;4923685;28;20034;-66
2022/11/26 01:59:21;;;;;;;12.38;4.65;;;7.00;85.10;;;5.24;100.00;96935.63;4957411;28;20054;-66
2022/11/26 02:01:56;;;;;;;10.93;4.75;;;7.00;85.00;;;5.24;100.00;96946.06;4960939;28;20145;-66
2022/11/26 02:05:23;;;;;;;13.65;4.53;;;7.00;85.00;;;5.27;100.00;96952.81;4944726;28;20064;-67
2022/11/26 02:07:50;;;;;;;9.32;4.97;;;7.10;84.90;;;5.25;100.00;96952.13;4942430;28;20038;-66
2022/11/26 02:10:19;;;;;;;10.35;4.50;;;7.10;85.00;;;5.26;100.00;96954.59;4944435;28;20049;-66
2022/11/26 02:12:45;;;;;;;7.53;4.63;;;7.10;84.90;;;5.28;100.00;96941.41;4942342;28;20157;-66
2022/11/26 02:15:23;;;;;;;11.68;4.57;;;7.10;84.80;;;5.28;100.00;96947.44;4929940;28;20140;-66
2022/11/26 02:18:20;;;;;;;9.45;4.45;;;7.10;84.70;;;5.29;100.00;96949.09;4943581;28;20030;-67
2022/11/26 02:21:01;;;;;;;12.25;4.50;;;7.10;84.70;;;5.24;100.00;96943.47;4956774;28;20038;-67
2022/11/26 02:24:03;;;;;;;10.02;4.68;;;7.10;84.90;;;5.30;100.00;96958.56;4945282;28;20117;-65
2022/11/26 02:27:19;;;;;;;;;;;;;;;;;;;;;
2022/11/26 02:30:11;;;;;;;11.60;4.50;;;7.10;84.70;;;5.31;100.00;96965.44;4905367;28;20797;-67
2022/11/26 02:32:44;;;;;;;15.10;4.90;;;7.10;84.60;;;5.26;100.00;96956.38;4926192;28;20104;-66
2022/11/26 02:36:27;;;;;;;11.38;4.47;;;7.10;84.80;;;5.29;100.00;96977.78;4938991;28;20057;-68
2022/11/26 02:39:31;;;;;;;11.05;4.45;;;7.10;84.80;;;5.27;100.00;96977.09;4844851;28;20565;-65
2022/11/26 02:42:01;;;;;;;8.50;4.63;;;7.00;84.70;;;5.24;100.00;96972.16;4939880;28;20065;-66
2022/11/26 02:44:55;;;;;;;7.43;4.47;;;7.00;84.60;;;5.20;100.00;96963.78;4926839;28;20046;-67
2022/11/26 02:47:22;;;;;;;9.05;4.55;;;6.90;84.80;;;5.21;100.00;96972.44;4942709;28;20073;-70
2022/11/26 02:49:48;;;;;;;11.60;4.95;;;6.90;84.80;;;5.19;100.00;96974.31;4936652;28;20034;-66
2022/11/26 02:52:14;;;;;;;11.77;5.15;;;6.80;84.70;;;5.17;100.00;96977.06;4993259;22;20425;-69
2022/11/26 02:54:40;;;;;;;9.45;4.70;;;6.80;84.80;;;5.15;100.00;96976.38;4927590;28;20368;-71
2022/11/26 02:57:08;;;;;;;11.02;5.00;;;6.80;84.60;;;5.15;100.00;96980.75;4943097;28;20360;-70
2022/11/26 02:59:34;;;;;;;14.48;4.90;;;6.80;84.70;;;5.13;100.00;96986.13;4936626;28;20424;-71
2022/11/26 03:02:09;;;;;;;9.00;4.75;;;6.80;84.40;;;5.15;100.00;96983.38;4941500;28;20037;-70
2022/11/26 03:04:39;;;;;;;10.20;4.85;;;6.90;84.50;;;5.16;100.00;96988.44;4915608;28;20206;-71
2022/11/26 03:07:05;;;;;;;10.38;4.70;;;6.90;84.40;;;5.17;100.00;96992.72;4906439;28;20401;-72
2022/11/26 03:09:41;;;;;;;11.32;4.68;;;7.00;84.20;;;5.20;100.00;96996.84;4907864;28;20376;-71
2022/11/26 03:12:07;;;;;;;12.30;5.30;;;7.10;84.20;;;5.20;100.00;96992.47;4923333;28;20372;-71
2022/11/26 03:14:34;;;;;;;9.43;5.07;;;7.10;84.20;;;5.21;100.00;96996.72;4924059;28;20260;-72
2022/11/26 03:17:00;;;;;;;13.85;4.72;;;7.10;84.00;;;5.22;100.00;96995.75;4927193;28;20491;-72
2022/11/26 03:19:26;;;;;;;13.13;4.93;;;7.10;83.80;;;5.23;100.00;96997.41;4928304;28;20487;-72
2022/11/26 03:21:52;;;;;;;13.65;4.75;;;7.10;83.90;;;5.25;100.00;96999.88;4908048;28;20346;-70
2022/11/26 03:24:18;;;;;;;9.27;4.90;;;7.10;84.10;;;5.25;100.00;97002.50;4911007;28;20380;-71
2022/11/26 03:26:44;;;;;;;7.35;4.70;;;7.10;84.00;;;5.26;100.00;97001.53;4939082;28;20562;-69
2022/11/26 03:29:13;;;;;;;9.43;5.13;;;7.20;83.80;;;5.27;100.00;97003.19;4926265;28;20567;-70
2022/11/26 03:31:39;;;;;;;16.42;5.20;;;7.10;83.80;;;5.28;100.00;96999.63;4909132;28;20362;-70
2022/11/26 03:34:05;;;;;;;11.27;4.88;;;7.20;83.70;;;5.29;100.00;97000.44;4915235;28;20386;-70
2022/11/26 03:36:31;;;;;;;10.55;4.80;;;7.20;83.80;;;5.28;100.00;97002.22;4904333;28;21014;-71
2022/11/26 03:38:57;;;;;;;11.23;5.15;;;7.10;83.80;;;5.30;100.00;97007.31;4916252;28;20357;-70
2022/11/26 03:41:24;;;;;;;11.30;5.10;;;7.20;83.80;;;5.30;100.00;97002.09;4898848;28;20389;-70
2022/11/26 03:43:50;;;;;;;9.07;5.28;;;7.20;83.80;;;5.29;100.00;97006.47;4902511;28;20489;-70
2022/11/26 03:46:16;;;;;;;12.15;5.50;;;7.20;83.90;;;5.29;100.00;97003.88;4902872;28;20340;-72
2022/11/26 03:48:42;;;;;;;11.68;5.70;;;7.10;83.90;;;5.29;100.00;97008.28;4907600;28;20799;-70
2022/11/26 03:51:08;;;;;;;16.02;6.03;;;7.20;84.00;;;5.27;100.00;97008.41;4907295;28;20360;-72
2022/11/26 03:53:34;;;;;;;8.35;4.63;;;7.10;83.90;;;5.28;100.00;97007.44;4909956;28;20465;-70
2022/11/26 03:56:00;;;;;;;15.20;5.15;;;7.20;83.90;;;5.28;100.00;97014.44;4951470;28;20788;-70
2022/11/26 03:58:26;;;;;;;14.00;5.43;;;7.10;83.80;;;5.28;100.00;97017.88;4926284;28;20258;-71
2022/11/26 04:00:52;;;;;;;15.60;9.50;;;7.20;83.90;;;5.28;100.00;97010.06;4906013;28;20327;-71
2022/11/26 04:03:18;;;;;;;31.50;17.00;;;7.10;84.10;;;5.28;100.00;97019.66;4913144;28;20341;-72
2022/11/26 04:05:44;;;;;;;20.73;11.88;;;7.10;84.30;;;5.28;100.00;97025.69;4918110;28;20397;-71
2022/11/26 04:08:10;;;;;;;10.35;5.38;;;7.10;84.50;;;5.29;100.00;97029.97;4914295;28;20428;-71
2022/11/26 04:10:36;;;;;;;12.93;5.72;;;7.10;84.50;;;5.28;100.00;97025.69;4930455;28;20531;-71
2022/11/26 04:13:03;;;;;;;14.23;5.60;;;7.10;84.50;;;5.27;100.00;97025.84;4912631;28;20327;-71
2022/11/26 04:15:29;;;;;;;14.63;5.57;;;7.10;84.40;;;5.28;100.00;97038.75;4933100;28;20319;-72
2022/11/26 04:17:55;;;;;;;11.95;5.28;;;7.10;84.40;;;5.28;100.00;97036.13;4931931;28;20753;-71
2022/11/26 04:20:21;;;;;;;16.75;5.85;;;7.20;84.40;;;5.29;100.00;97042.19;4917994;28;20593;-70
2022/11/26 04:22:47;;;;;;;12.77;5.72;;;7.20;84.30;;;5.27;100.00;97039.72;4917005;27;20700;-71
2022/11/26 04:25:13;;;;;;;16.02;5.85;;;7.20;84.30;;;5.29;100.00;97047.41;4913955;28;20401;-65
2022/11/26 04:27:39;;;;;;;12.93;5.38;;;7.20;84.30;;;5.28;100.00;97049.19;4928188;28;20365;-65
2022/11/26 04:30:06;;;;;;;13.95;6.63;;;7.20;84.30;;;5.29;100.00;97053.44;4928416;28;20221;-67
2022/11/26 04:32:33;;;;;;;14.60;6.15;;;7.20;84.30;;;5.29;100.00;97053.44;4936331;28;20368;-67
2022/11/26 04:34:59;;;;;;;11.20;5.82;;;7.20;84.30;;;5.30;100.00;97052.47;4931965;28;20299;-64
2022/11/26 04:37:25;;;;;;;12.32;6.13;;;7.20;84.20;;;5.31;100.00;97059.34;4895760;28;20617;-64
2022/11/26 04:39:51;;;;;;;10.45;5.72;;;7.20;84.10;;;5.31;100.00;97067.16;4924733;28;20495;-68
2022/11/26 04:42:17;;;;;;;12.75;6.25;;;7.20;84.20;;;5.32;100.00;97076.66;4935566;28;20321;-66
2022/11/26 04:44:43;;;;;;;16.00;6.45;;;7.30;84.10;;;5.32;100.00;97074.03;4963891;28;20376;-66
2022/11/26 04:47:10;;;;;;;13.23;6.03;;;7.30;84.10;;;5.32;100.00;97084.47;4928876;28;20556;-67
2022/11/26 04:49:39;;;;;;;14.73;5.85;;;7.30;84.10;;;5.34;100.00;97081.72;4947102;28;20205;-67
2022/11/26 04:52:05;;;;;;;13.35;6.30;;;7.30;84.20;;;5.34;100.00;97089.56;4925897;28;20482;-67
2022/11/26 04:54:31;;;;;;;16.42;7.15;;;7.30;84.10;;;5.34;100.00;97082.56;4956124;28;20355;-66
2022/11/26 04:56:58;;;;;;;13.45;6.18;;;7.20;84.10;;;5.34;100.00;97087.78;4929841;28;20546;-67
2022/11/26 04:59:24;;;;;;;16.13;6.60;;;7.30;84.20;;;5.34;100.00;97090.38;4914493;28;20565;-67
2022/11/26 05:01:55;;;;;;;12.68;7.30;;;7.20;84.00;;;5.32;100.00;97092.31;4905377;28;20354;-67
2022/11/26 05:04:21;;;;;;;18.23;7.00;;;7.20;84.10;;;5.32;100.00;97097.53;4929856;28;20326;-67
2022/11/26 05:06:47;;;;;;;16.58;6.65;;;7.20;84.00;;;5.30;100.00;97096.81;4927369;28;20867;-67
2022/11/26 05:09:13;;;;;;;14.85;6.50;;;7.20;84.00;;;5.30;100.00;97104.66;4928781;28;20361;-67
2022/11/26 05:11:39;;;;;;;13.20;6.82;;;7.10;84.30;;;5.29;100.00;97105.59;4909002;28;20297;-68
2022/11/26 05:14:05;;;;;;;13.63;7.10;;;7.10;84.40;;;5.29;100.00;97105.59;4910215;28;20318;-68
2022/11/26 05:16:31;;;;;;;14.70;6.43;;;7.20;84.40;;;5.29;100.00;97115.22;4926590;28;20679;-67
2022/11/26 05:18:57;;;;;;;12.23;6.38;;;7.20;84.50;;;5.29;100.00;97105.59;4928093;28;20451;-64
2022/11/26 05:21:23;;;;;;;12.45;6.75;;;7.20;84.50;;;5.31;100.00;97113.31;4910573;28;20394;-67
2022/11/26 05:23:49;;;;;;;14.25;6.88;;;7.20;84.40;;;5.30;100.00;97125.53;4909706;28;20365;-67
2022/11/26 05:26:16;;;;;;;19.88;7.45;;;7.20;84.40;;;5.33;100.00;97127.03;4909438;28;20388;-67
2022/11/26 05:28:42;;;;;;;12.85;7.32;;;7.20;84.30;;;5.31;100.00;97119.34;4925740;28;20323;-66
2022/11/26 05:31:08;;;;;;;17.52;7.80;;;7.20;84.50;;;5.33;100.00;97117.44;4922866;28;20361;-66
2022/11/26 05:33:34;;;;;;;15.70;7.55;;;7.20;84.60;;;5.34;100.00;97126.91;4939318;28;20480;-67
2022/11/26 05:36:00;;;;;;;15.38;7.72;;;7.20;84.50;;;5.34;100.00;97129.50;4942697;28;20139;-66
2022/11/26 05:38:26;;;;;;;12.57;7.45;;;7.20;84.30;;;5.34;100.00;97129.50;4983100;28;20032;-65
2022/11/26 05:40:52;;;;;;;12.95;7.15;;;7.20;84.60;;;5.37;100.00;97138.84;4965897;28;20033;-65
2022/11/26 05:43:17;;;;;;;17.52;7.53;;;7.20;84.40;;;5.37;100.00;97137.06;4968424;28;20322;-65
2022/11/26 05:45:43;;;;;;;13.30;7.32;;;7.30;84.30;;;5.37;100.00;97142.28;4983994;28;20334;-65
2022/11/26 05:48:09;;;;;;;18.20;7.82;;;7.30;84.30;;;5.39;100.00;97143.00;4991049;28;20430;-65
2022/11/26 05:50:35;;;;;;;15.32;7.43;;;7.30;84.20;;;5.40;100.00;97144.63;4985840;28;20043;-66
2022/11/26 05:53:01;;;;;;;16.15;7.20;;;7.30;84.40;;;5.40;100.00;97144.63;4986215;28;20507;-66
2022/11/26 05:55:27;;;;;;;18.02;8.60;;;7.30;84.40;;;5.40;100.00;97144.63;4969385;28;20328;-66
2022/11/26 05:57:53;;;;;;;14.38;8.07;;;7.40;84.30;;;5.43;100.00;97153.97;4985843;28;20353;-64
2022/11/26 06:00:19;;;;;;;16.67;8.38;;;7.40;84.30;;;5.42;100.00;97150.56;5003034;28;20462;-64
2022/11/26 06:02:45;;;;;;;14.25;7.30;;;7.20;84.20;;;5.41;100.00;97148.06;4984559;28;20041;-64
2022/11/26 06:05:11;;;;;;;20.95;10.90;;;7.20;84.30;;;5.42;100.00;97141.91;5002540;28;20047;-65
2022/11/26 06:07:37;;;;;;;18.58;8.77;;;7.30;84.50;;;5.40;100.00;97144.63;5002882;28;20202;-64
2022/11/26 06:10:03;;;;;;;28.48;16.25;;;7.20;84.60;;;5.40;100.00;97144.63;5002921;28;20322;-64
2022/11/26 06:12:29;;;;;;;19.75;10.93;;;7.20;84.90;;;5.41;100.00;97146.28;4985846;28;20043;-64
2022/11/26 06:14:55;;;;;;;20.35;8.60;;;7.30;84.90;;;5.43;100.00;97149.63;4986575;28;20024;-65
2022/11/26 06:17:21;;;;;;;25.42;14.45;;;7.20;84.50;;;5.43;100.00;97154.84;5002473;28;20388;-64
2022/11/26 06:19:47;;;;;;;13.52;6.65;;;7.30;84.50;;;5.41;100.00;97167.16;4987614;28;20029;-63
2022/11/26 06:22:13;;;;;;;10.93;6.47;;;7.20;83.90;;;5.39;100.00;97163.84;4985687;28;20525;-67
2022/11/26 06:24:39;;;;;;;9.95;5.78;;;7.20;84.00;;;5.39;100.00;97163.03;4969268;28;20403;-64
2022/11/26 06:27:04;;;;;;;13.95;5.65;;;7.20;84.20;;;5.36;100.00;97158.09;5016323;28;20044;-65
2022/11/26 06:29:30;;;;;;;16.90;5.90;;;7.10;84.20;;;5.33;100.00;97159.16;4988901;28;20387;-63
2022/11/26 06:31:56;;;;;;;12.20;5.07;;;7.20;84.10;;;5.33;100.00;97160.97;4972629;28;20259;-65
2022/11/26 06:34:22;;;;;;;10.40;4.85;;;7.10;83.70;;;5.30;100.00;97169.88;5006246;28;20378;-66
2022/11/26 06:36:48;;;;;;;10.63;4.50;;;7.10;84.00;;;5.28;100.00;97160.53;4971926;28;20308;-64
2022/11/26 06:39:14;;;;;;;12.60;5.20;;;7.10;83.80;;;5.26;100.00;97158.03;5005565;28;20345;-64
2022/11/26 06:41:40;;;;;;;12.55;5.65;;;7.10;83.80;;;5.24;100.00;97165.19;5005210;28;20186;-64
2022/11/26 06:44:06;;;;;;;11.82;5.03;;;7.10;84.10;;;5.22;100.00;97169.69;5005093;28;20491;-65
2022/11/26 06:46:34;;;;;;;11.57;4.82;;;7.10;83.90;;;5.22;100.00;97174.91;4983348;28;20492;-65
2022/11/26 06:49:04;;;;;;;8.93;4.40;;;7.00;84.00;;;5.20;100.00;97168.97;4981428;28;20033;-65
2022/11/26 06:51:30;;;;;;;8.70;4.40;;;7.00;84.00;;;5.20;100.00;97179.41;4985484;28;20589;-65
2022/11/26 06:53:56;;;;;;;8.60;4.93;;;7.00;84.00;;;5.18;100.00;97174.31;4968249;28;20102;-64
2022/11/26 06:56:22;;;;;;;12.40;5.10;;;7.00;84.20;;;5.18;100.00;97186.53;4984924;28;20032;-64
2022/11/26 06:58:48;;;;;;;24.45;12.80;;;6.90;85.00;;;5.19;100.00;97182.97;5000628;28;20356;-64
2022/11/26 07:01:22;;;;;;;13.23;7.88;;;7.00;85.30;;;5.19;100.00;97183.81;5003045;28;20033;-64
2022/11/26 07:03:48;;;;;;;12.23;5.32;;;7.00;85.00;;;5.20;100.00;97189.84;4985578;28;20033;-64
2022/11/26 07:06:25;;;;;;;11.23;4.43;;;7.00;85.10;;;5.22;100.00;97199.22;4984822;28;20483;-64
2022/11/26 07:08:52;;;;;;;24.83;15.00;;;7.10;85.00;;;5.23;100.00;97206.09;4984914;28;20040;-65
2022/11/26 07:11:19;;;;;;;21.85;13.02;;;7.10;84.80;;;5.24;100.00;97206.91;4985049;28;20024;-65
2022/11/26 07:13:44;;;;;;;19.73;10.60;;;7.10;84.60;;;5.26;100.00;97204.19;4985103;28;20094;-65
2022/11/26 07:16:10;;;;;;;17.85;9.40;;;7.20;84.50;;;5.28;100.00;97213.53;5001367;28;20479;-65
2022/11/26 07:18:36;;;;;;;21.20;12.00;;;7.10;84.40;;;5.31;100.00;97212.44;4984409;28;20036;-64
2022/11/26 07:21:12;;;;;;;16.58;9.77;;;7.20;84.40;;;5.32;100.00;97208.88;4999221;28;20337;-64
2022/11/26 07:23:38;;;;;;;14.45;6.60;;;7.20;84.10;;;5.33;100.00;97219.19;4984576;28;20108;-64
2022/11/26 07:26:04;;;;;;;12.63;4.95;;;7.30;84.10;;;5.37;100.00;97212.75;5000249;28;20038;-71
2022/11/26 07:28:31;;;;;;;12.63;5.40;;;7.30;84.10;;;5.37;100.00;97217.97;4968417;28;20719;-61
2022/11/26 07:31:05;;;;;;;13.73;5.78;;;7.30;84.10;;;5.39;100.00;97233.47;4999871;28;20032;-61
2022/11/26 07:33:31;;;;;;;9.00;5.22;;;7.30;84.40;;;5.41;100.00;97239.41;4967585;28;20583;-61
2022/11/26 07:36:06;;;;;;;12.57;5.90;;;7.40;84.50;;;5.43;100.00;97235.72;4983882;28;20036;-61
2022/11/26 07:38:32;;;;;;;12.88;6.25;;;7.40;84.50;;;5.44;100.00;97239.16;4984187;28;20669;-62
2022/11/26 07:41:06;;;;;;;13.02;6.43;;;7.40;84.60;;;5.46;100.00;97243.28;4983488;28;20037;-62
2022/11/26 07:43:36;;;;;;;14.30;5.80;;;7.40;84.40;;;5.49;100.00;97237.00;4983999;28;20033;-61
2022/11/26 07:46:04;;;;;;;12.43;6.03;;;7.40;84.10;;;5.52;100.00;97239.34;4968711;28;20059;-64
2022/11/26 07:48:30;;;;;;;11.93;7.10;;;7.50;84.40;;;5.54;100.00;97243.47;4952149;28;20093;-64
2022/11/26 07:50:56;;;;;;;14.18;7.32;;;7.50;84.40;;;5.58;100.00;97240.59;4984033;28;20033;-64
2022/11/26 07:53:22;;;;;;;11.10;6.18;;;7.50;84.30;;;5.60;100.00;97249.94;4967974;28;20032;-64
2022/11/26 07:55:48;;;;;;;12.40;6.55;;;7.60;84.40;;;5.62;100.00;97245.41;5002039;28;20306;-65
2022/11/26 07:58:14;;;;;;;14.57;6.70;;;7.60;84.40;;;5.65;100.00;97249.53;4985543;28;20568;-66
2022/11/26 08:00:40;;;;;;;12.20;6.22;;;7.60;84.30;;;5.66;100.00;97243.38;4967142;28;20037;-65
2022/11/26 08:03:06;;;;;;;9.63;5.50;;;7.60;84.30;;;5.67;100.00;97245.06;4951218;28;20402;-65
2022/11/26 08:05:32;;;;;;;14.43;6.07;;;7.60;84.00;;;5.70;100.00;97247.41;4987644;28;20109;-66
2022/11/26 08:07:58;;;;;;;12.48;6.00;;;7.70;83.80;;;5.72;100.00;97258.53;4952597;28;20342;-66
2022/11/26 08:10:23;;;;;;;10.98;5.60;;;7.60;83.80;;;5.73;100.00;97254.97;4984801;28;20402;-67
2022/11/26 08:12:50;;;;;;;19.00;6.53;;;7.70;83.60;;;5.73;100.00;97255.78;4983429;28;20094;-68
2022/11/26 08:15:16;;;;;;;29.80;19.80;;;7.60;83.30;;;5.75;100.00;97264.31;4984188;28;20020;-64
2022/11/26 08:17:42;;;;;;;11.85;7.13;;;7.70;83.60;;;5.78;100.00;97264.06;4984603;28;20105;-65
2022/11/26 08:20:09;;;;;;;19.77;11.60;;;7.70;83.40;;;5.80;100.00;97262.13;5002107;28;20210;-67
2022/11/26 08:22:35;;;;;;;15.73;7.47;;;7.80;83.00;;;5.84;100.00;97252.25;4983574;28;20037;-65
2022/11/26 08:25:00;;;;;;;10.23;6.53;;;7.90;83.00;;;5.90;100.00;97264.84;4967322;28;20219;-65
2022/11/26 08:27:26;;;;;;;10.05;4.75;;;8.10;82.80;;;5.98;100.00;97270.22;5000811;28;20260;-66
2022/11/26 08:29:52;;;;;;;8.95;4.50;;;8.20;82.30;;;6.08;100.00;97275.47;5002057;28;20398;-66
2022/11/26 08:32:18;;;;;;;10.05;4.80;;;8.40;81.30;;;6.17;100.00;97273.88;5000792;28;20381;-67
2022/11/26 08:34:44;;;;;;;9.02;4.20;;;8.50;81.20;;;6.28;100.00;97277.19;4964090;28;20361;-66
2022/11/26 08:37:10;;;;;;;7.82;3.88;;;8.60;80.80;;;6.38;100.00;97279.84;4979652;28;20357;-66
2022/11/26 08:39:36;;;;;;;7.53;3.10;;;8.80;80.20;;;6.51;100.00;97269.94;4963723;28;20397;-67
2022/11/26 08:42:01;;;;;;;8.00;4.13;;;9.00;79.40;;;6.61;100.00;97276.03;4997501;28;20045;-68
2022/11/26 08:44:27;;;;;;;7.13;4.05;;;9.10;78.80;;;6.74;100.00;97279.19;4982561;28;20411;-67
2022/11/26 08:46:53;;;;;;;5.78;2.88;;;9.40;78.10;;;6.88;100.00;97274.53;4986610;28;20348;-66
2022/11/26 08:49:19;;;;;;;6.65;3.63;;;9.50;77.20;;;6.99;100.00;97282.25;4971212;28;20376;-68
2022/11/26 08:51:45;;;;;;;8.98;3.47;;;9.60;76.60;;;7.06;100.00;97275.53;5004625;28;20071;-66
2022/11/26 08:54:11;;;;;;;7.75;3.45;;;9.80;75.80;;;7.19;100.00;97283.91;4987646;28;20037;-67
2022/11/26 08:56:37;;;;;;;6.57;2.90;;;10.10;75.30;;;7.35;100.00;97281.53;4988632;28;20040;-67
2022/11/26 08:59:03;;;;;;;8.55;3.53;;;10.40;74.40;;;7.58;100.00;97283.84;4970731;28;20055;-68
2022/11/26 09:01:33;;;;;;;7.65;3.38;;;10.60;74.00;;;7.79;100.00;97286.28;4971660;28;20357;-68
2022/11/26 09:04:00;;;;;;;7.78;3.20;;;11.00;73.40;;;8.03;100.00;97293.66;4972957;28;20044;-67
2022/11/26 09:06:28;;;;;;;14.27;8.10;;;11.10;72.80;;;8.22;100.00;97293.59;4987789;28;20055;-67
2022/11/26 09:09:13;;;;;;;20.80;12.63;;;11.10;73.60;;;8.30;100.00;97301.53;4970680;28;20054;-68
2022/11/26 09:11:54;;;;;;;11.98;6.30;;;10.80;73.80;;;8.34;100.00;97302.91;4976475;28;20029;-67
2022/11/26 09:14:23;;;;;;;10.50;3.97;;;10.40;73.70;;;8.29;100.00;97299.88;5003931;28;20040;-68
2022/11/26 09:16:50;;;;;;;9.63;3.72;;;10.20;74.00;;;8.28;100.00;97301.69;4970785;28;20033;-66
2022/11/26 09:19:16;;;;;;;6.32;3.10;;;10.20;74.10;;;8.27;100.00;97301.81;4994088;28;20677;-67
2022/11/26 09:21:42;;;;;;;8.27;3.15;;;10.20;74.20;;;8.27;100.00;97307.06;4970159;28;20066;-66
2022/11/26 09:24:08;;;;;;;9.68;4.90;;;10.10;74.30;;;8.21;100.00;97312.91;5003576;28;20032;-66
2022/11/26 09:26:34;;;;;;;9.95;4.00;;;9.90;74.50;;;8.14;100.00;97320.50;5003198;28;20487;-66
2022/11/26 09:29:00;;;;;;;11.60;4.00;;;9.90;75.00;;;8.07;100.00;97327.28;4986596;28;20037;-67
2022/11/26 09:31:26;;;;;;;12.30;3.70;;;9.70;75.30;;;8.03;100.00;97330.34;4967102;28;20547;-67
2022/11/26 09:33:55;;;;;;;9.32;3.60;;;9.70;75.30;;;8.01;100.00;97327.03;4969113;28;20029;-66
2022/11/26 09:36:21;;;;;;;8.07;3.55;;;9.90;75.50;;;7.98;100.00;97334.22;4984209;28;20029;-66
2022/11/26 09:38:47;;;;;;;9.90;3.90;;;9.80;75.60;;;7.97;100.00;97337.81;4966092;28;20346;-66
2022/11/26 09:41:41;;;;;;;9.00;4.05;;;9.90;75.10;;;7.97;100.00;97334.34;4967084;28;20346;-67
2022/11/26 09:44:31;;;;;;;10.43;3.95;;;9.90;74.60;;;7.99;100.00;97333.25;4968599;28;20428;-66
2022/11/26 09:47:24;;;;;;;9.20;3.95;;;10.10;74.40;;;8.06;100.00;97336.13;4982256;28;20033;-67
2022/11/26 09:50:14;;;;;;;11.93;4.00;;;10.30;73.10;;;8.25;100.00;97335.22;4982798;28;20055;-67
2022/11/26 09:52:42;;;;;;;10.48;3.60;;;11.80;68.60;;;8.56;100.00;97339.25;4982859;28;20036;-68
2022/11/26 09:55:30;;;;;;;10.00;3.50;;;14.20;61.70;;;9.03;100.00;97333.84;4982864;28;20628;-66
2022/11/26 09:58:34;;;;;;;10.00;3.85;;;15.40;56.90;;;9.46;100.00;97334.91;4967355;28;20033;-66
2022/11/26 10:01:00;;;;;;;9.45;3.65;;;14.20;57.90;;;9.57;100.00;97339.13;4982290;28;20113;-68
2022/11/26 10:03:36;;;;;;;10.52;4.28;;;13.00;61.20;;;9.57;100.00;97339.94;4966767;28;20025;-66
2022/11/26 10:06:06;;;;;;;8.82;3.83;;;12.20;64.00;;;9.52;100.00;97336.94;4983562;28;20090;-67
2022/11/26 10:09:05;;;;;;;7.07;3.78;;;12.00;65.20;;;9.48;99.32;97340.81;4982761;28;20092;-67
2022/11/26 10:12:02;;;;;;;8.77;4.03;;;11.70;66.10;;;9.38;98.61;97329.59;4983624;28;20675;-67
2022/11/26 10:14:58;;;;;;;8.82;3.97;;;11.40;66.90;;;9.24;98.92;97330.13;4977518;28;20037;-67
2022/11/26 10:17:33;;;;;;;8.07;3.90;;;11.10;67.80;;;9.11;100.00;97323.47;4966536;28;20077;-68
2022/11/26 10:20:25;;;;;;;11.90;3.88;;;11.10;68.90;;;9.03;99.84;97320.72;4984088;28;20106;-67
2022/11/26 10:23:04;;;;;;;7.80;3.50;;;11.10;68.30;;;8.95;99.45;97323.28;4981098;28;20045;-67
2022/11/26 10:25:37;;;;;;;8.38;3.60;;;11.00;68.30;;;8.87;100.00;97325.84;4968594;28;20036;-66
2022/11/26 10:28:12;;;;;;;13.15;7.22;;;10.70;68.80;;;8.79;99.98;97329.19;4985457;28;20036;-67
2022/11/26 10:30:38;;;;;;;28.77;16.30;;;10.70;69.10;;;8.74;100.00;97328.81;4970637;28;20098;-67
2022/11/26 10:33:03;;;;;;;16.13;6.60;;;10.70;69.70;;;8.70;100.00;97335.31;5000798;28;20202;-67
2022/11/26 10:35:29;;;;;;;9.95;5.45;;;10.60;69.90;;;8.63;100.00;97333.44;4969797;28;20439;-68